createdAt,value
2017-05-22T00:00:43.589Z,15.57
2017-05-22T00:01:45.013Z,15.67
2017-05-22T00:02:46.416Z,15.56
2017-05-22T00:03:47.780Z,15.68
2017-05-22T00:04:49.153Z,15.57
2017-05-22T00:05:50.587Z,15.66
2017-05-22T00:06:51.949Z,15.60
2017-05-22T00:07:53.370Z,15.57
2017-05-22T00:08:54.681Z,15.63
2017-05-22T00:09:56.036Z,15.59
2017-05-22T00:10:57.412Z,15.63
2017-05-22T00:11:58.902Z,15.61
2017-05-22T00:13:00.263Z,15.59
2017-05-22T00:14:01.638Z,15.60
2017-05-22T00:15:03.001Z,15.57
2017-05-22T00:16:04.367Z,15.52
2017-05-22T00:17:05.734Z,15.51
2017-05-22T00:18:07.123Z,15.59
2017-05-22T00:19:08.547Z,15.54
2017-05-22T00:20:09.914Z,15.54
2017-05-22T00:21:11.284Z,15.54
2017-05-22T00:22:12.655Z,15.41
2017-05-22T00:23:14.048Z,15.49
2017-05-22T00:24:15.417Z,15.51
2017-05-22T00:25:16.817Z,15.43
2017-05-22T00:26:18.181Z,15.54
2017-05-22T00:27:19.553Z,15.51
2017-05-22T00:28:20.921Z,15.51
2017-05-22T00:29:22.285Z,15.51
2017-05-22T00:30:23.650Z,15.51
2017-05-22T00:31:25.014Z,15.42
2017-05-22T00:32:26.418Z,15.33
2017-05-22T00:33:27.776Z,15.38
2017-05-22T00:34:29.205Z,15.39
2017-05-22T00:35:30.572Z,15.38
2017-05-22T00:36:31.924Z,15.39
2017-05-22T00:37:33.942Z,15.30
2017-05-22T00:38:35.312Z,15.30
2017-05-22T00:39:36.674Z,15.33
2017-05-22T00:40:38.043Z,15.36
2017-05-22T00:41:39.445Z,15.38
2017-05-22T00:42:40.861Z,15.30
2017-05-22T00:43:42.226Z,15.31
2017-05-22T00:44:44.409Z,15.35
2017-05-22T00:45:45.773Z,15.31
2017-05-22T00:46:47.147Z,15.41
2017-05-22T00:47:48.505Z,15.33
2017-05-22T00:48:49.865Z,15.27
2017-05-22T00:49:51.235Z,15.30
2017-05-22T00:50:52.596Z,15.30
2017-05-22T00:51:53.974Z,15.28
2017-05-22T00:52:55.335Z,15.19
2017-05-22T00:53:56.768Z,15.24
2017-05-22T00:54:58.134Z,15.24
2017-05-22T00:55:59.497Z,15.23
2017-05-22T00:57:00.867Z,15.26
2017-05-22T00:58:02.225Z,15.24
2017-05-22T00:59:03.606Z,15.20
2017-05-22T01:00:04.975Z,15.26
2017-05-22T01:01:06.338Z,15.27
2017-05-22T01:02:07.712Z,15.09
2017-05-22T01:03:09.087Z,15.20
2017-05-22T01:04:10.465Z,15.21
2017-05-22T01:05:11.825Z,15.17
2017-05-22T01:06:13.262Z,15.17
2017-05-22T01:07:14.622Z,15.13
2017-05-22T01:08:15.989Z,15.15
2017-05-22T01:09:17.357Z,15.03
2017-05-22T01:10:18.721Z,15.09
2017-05-22T01:11:20.085Z,15.02
2017-05-22T01:12:21.450Z,15.11
2017-05-22T01:13:22.810Z,15.15
2017-05-22T01:14:24.171Z,15.11
2017-05-22T01:15:26.281Z,15.13
2017-05-22T01:16:27.640Z,15.09
2017-05-22T01:17:28.998Z,15.06
2017-05-22T01:18:30.370Z,15.03
2017-05-22T01:19:31.726Z,15.05
2017-05-22T01:20:33.082Z,15.01
2017-05-22T01:21:34.446Z,14.94
2017-05-22T01:22:35.806Z,14.94
2017-05-22T01:23:37.168Z,15.01
2017-05-22T01:24:38.571Z,14.99
2017-05-22T01:25:39.934Z,14.90
2017-05-22T01:26:41.330Z,14.95
2017-05-22T01:27:43.472Z,15.05
2017-05-22T01:28:44.839Z,15.03
2017-05-22T01:29:46.203Z,14.98
2017-05-22T01:30:47.564Z,15.01
2017-05-22T01:31:48.927Z,15.05
2017-05-22T01:32:50.296Z,14.95
2017-05-22T01:33:51.664Z,15.02
2017-05-22T01:34:53.022Z,15.02
2017-05-22T01:35:54.406Z,15.03
2017-05-22T01:36:55.764Z,14.95
2017-05-22T01:37:57.152Z,14.98
2017-05-22T01:38:58.510Z,14.99
2017-05-22T01:39:59.877Z,14.99
2017-05-22T01:41:01.262Z,14.94
2017-05-22T01:42:02.653Z,14.95
2017-05-22T01:43:04.015Z,14.94
2017-05-22T01:44:05.375Z,14.83
2017-05-22T01:45:06.739Z,14.87
2017-05-22T01:46:08.099Z,14.94
2017-05-22T01:47:09.468Z,14.98
2017-05-22T01:48:10.840Z,14.88
2017-05-22T01:49:12.201Z,14.87
2017-05-22T01:50:13.579Z,14.95
2017-05-22T01:51:14.943Z,14.94
2017-05-22T01:52:16.298Z,14.87
2017-05-22T01:53:17.728Z,14.93
2017-05-22T01:54:19.096Z,14.95
2017-05-22T01:55:20.458Z,14.99
2017-05-22T01:56:21.818Z,14.88
2017-05-22T01:57:23.185Z,14.90
2017-05-22T01:58:24.553Z,14.91
2017-05-22T01:59:25.914Z,14.88
2017-05-22T02:00:27.283Z,14.84
2017-05-22T02:01:28.644Z,14.91
2017-05-22T02:02:30.010Z,14.93
2017-05-22T02:03:31.374Z,14.93
2017-05-22T02:04:32.729Z,14.87
2017-05-22T02:05:34.096Z,14.88
2017-05-22T02:06:35.460Z,14.88
2017-05-22T02:07:36.881Z,14.91
2017-05-22T02:08:38.237Z,14.90
2017-05-22T02:09:39.603Z,14.93
2017-05-22T02:10:40.994Z,14.84
2017-05-22T02:11:42.350Z,14.81
2017-05-22T02:12:43.714Z,14.86
2017-05-22T02:13:45.078Z,14.93
2017-05-22T02:14:46.475Z,14.88
2017-05-22T02:15:47.816Z,14.81
2017-05-22T02:16:49.179Z,14.84
2017-05-22T02:17:50.538Z,14.72
2017-05-22T02:18:51.907Z,14.83
2017-05-22T02:19:53.274Z,14.91
2017-05-22T02:20:55.434Z,14.83
2017-05-22T02:21:56.808Z,14.72
2017-05-22T02:22:58.198Z,14.81
2017-05-22T02:23:59.562Z,14.75
2017-05-22T02:25:00.929Z,14.80
2017-05-22T02:26:02.290Z,14.74
2017-05-22T02:27:03.664Z,14.68
2017-05-22T02:28:05.030Z,14.71
2017-05-22T02:29:06.392Z,14.78
2017-05-22T02:30:07.764Z,14.75
2017-05-22T02:31:09.153Z,14.80
2017-05-22T02:32:10.516Z,14.74
2017-05-22T02:33:11.872Z,14.54
2017-05-22T02:34:13.249Z,14.62
2017-05-22T02:35:14.603Z,14.52
2017-05-22T02:36:15.960Z,14.52
2017-05-22T02:37:17.327Z,14.65
2017-05-22T02:38:18.695Z,14.65
2017-05-22T02:39:20.054Z,14.64
2017-05-22T02:40:21.409Z,14.50
2017-05-22T02:41:22.773Z,14.62
2017-05-22T02:42:24.157Z,14.54
2017-05-22T02:43:25.528Z,14.54
2017-05-22T02:44:26.890Z,14.52
2017-05-22T02:45:28.249Z,14.62
2017-05-22T02:46:29.613Z,14.53
2017-05-22T02:47:30.989Z,14.52
2017-05-22T02:48:32.359Z,14.54
2017-05-22T02:49:33.742Z,14.54
2017-05-22T02:50:35.091Z,14.56
2017-05-22T02:51:36.466Z,14.42
2017-05-22T02:52:37.835Z,14.65
2017-05-22T02:53:39.204Z,14.61
2017-05-22T02:54:40.565Z,14.56
2017-05-22T02:55:41.933Z,14.39
2017-05-22T02:56:43.295Z,14.38
2017-05-22T02:57:44.706Z,14.56
2017-05-22T02:58:46.076Z,14.43
2017-05-22T02:59:47.504Z,14.43
2017-05-22T03:00:48.864Z,14.32
2017-05-22T03:01:50.230Z,14.39
2017-05-22T03:02:51.591Z,14.50
2017-05-22T03:03:52.972Z,14.43
2017-05-22T03:04:54.351Z,14.44
2017-05-22T03:05:55.720Z,14.47
2017-05-22T03:06:57.091Z,14.52
2017-05-22T03:07:58.451Z,14.52
2017-05-22T03:08:59.822Z,14.46
2017-05-22T03:10:01.185Z,14.52
2017-05-22T03:11:02.568Z,14.49
2017-05-22T03:12:03.946Z,14.34
2017-05-22T03:13:05.364Z,14.39
2017-05-22T03:14:06.740Z,14.44
2017-05-22T03:15:08.098Z,14.39
2017-05-22T03:16:09.481Z,14.37
2017-05-22T03:17:11.443Z,14.43
2017-05-22T03:18:12.821Z,14.31
2017-05-22T03:19:14.241Z,14.39
2017-05-22T03:20:15.620Z,14.42
2017-05-22T03:21:17.011Z,14.42
2017-05-22T03:22:18.390Z,14.37
2017-05-22T03:23:19.876Z,14.32
2017-05-22T03:24:21.271Z,14.29
2017-05-22T03:25:22.651Z,14.32
2017-05-22T03:26:24.037Z,14.44
2017-05-22T03:27:25.423Z,14.34
2017-05-22T03:28:26.795Z,14.38
2017-05-22T03:29:28.231Z,14.31
2017-05-22T03:30:29.592Z,14.38
2017-05-22T03:31:30.977Z,14.29
2017-05-22T03:32:32.348Z,14.39
2017-05-22T03:33:33.712Z,14.43
2017-05-22T03:34:35.092Z,14.38
2017-05-22T03:35:36.455Z,14.35
2017-05-22T03:36:37.855Z,14.28
2017-05-22T03:37:39.232Z,14.42
2017-05-22T03:38:40.599Z,14.31
2017-05-22T03:39:41.970Z,14.32
2017-05-22T03:40:43.329Z,14.27
2017-05-22T03:41:44.692Z,14.38
2017-05-22T03:42:46.064Z,14.39
2017-05-22T03:43:47.434Z,14.38
2017-05-22T03:44:48.805Z,14.38
2017-05-22T03:45:50.162Z,14.28
2017-05-22T03:46:51.531Z,14.37
2017-05-22T03:47:52.899Z,14.28
2017-05-22T03:48:54.266Z,14.29
2017-05-22T03:49:55.634Z,14.28
2017-05-22T03:50:56.997Z,14.35
2017-05-22T03:51:58.419Z,14.27
2017-05-22T03:52:59.792Z,14.34
2017-05-22T03:54:01.163Z,14.34
2017-05-22T03:55:02.542Z,14.39
2017-05-22T03:56:03.931Z,14.31
2017-05-22T03:57:05.302Z,14.44
2017-05-22T03:58:06.673Z,14.42
2017-05-22T03:59:08.081Z,14.43
2017-05-22T04:00:09.439Z,14.47
2017-05-22T04:01:10.821Z,14.43
2017-05-22T04:02:12.201Z,14.43
2017-05-22T04:03:13.572Z,14.37
2017-05-22T04:04:14.943Z,14.39
2017-05-22T04:05:16.322Z,14.43
2017-05-22T04:06:17.689Z,14.49
2017-05-22T04:07:19.063Z,14.49
2017-05-22T04:08:20.436Z,14.46
2017-05-22T04:09:21.811Z,14.44
2017-05-22T04:10:23.186Z,14.56
2017-05-22T04:11:24.603Z,14.54
2017-05-22T04:12:26.725Z,14.52
2017-05-22T04:13:28.101Z,14.56
2017-05-22T04:14:29.470Z,14.50
2017-05-22T04:15:30.834Z,14.56
2017-05-22T04:16:33.009Z,14.53
2017-05-22T04:17:34.377Z,14.53
2017-05-22T04:18:35.804Z,14.47
2017-05-22T04:19:37.172Z,14.52
2017-05-22T04:20:38.533Z,14.57
2017-05-22T04:21:39.926Z,14.60
2017-05-22T04:22:41.313Z,14.43
2017-05-22T04:23:42.688Z,14.56
2017-05-22T04:24:44.060Z,14.56
2017-05-22T04:25:45.422Z,14.60
2017-05-22T04:26:46.787Z,14.53
2017-05-22T04:27:48.181Z,14.68
2017-05-22T04:28:49.553Z,14.62
2017-05-22T04:29:50.931Z,14.65
2017-05-22T04:30:52.301Z,14.72
2017-05-22T04:31:53.667Z,14.69
2017-05-22T04:32:55.049Z,14.69
2017-05-22T04:33:56.415Z,14.74
2017-05-22T04:34:57.785Z,14.78
2017-05-22T04:35:59.172Z,14.74
2017-05-22T04:37:00.541Z,14.75
2017-05-22T04:38:01.906Z,14.81
2017-05-22T04:39:03.280Z,14.86
2017-05-22T04:40:04.647Z,14.83
2017-05-22T04:41:06.013Z,14.95
2017-05-22T04:42:07.383Z,14.91
2017-05-22T04:43:08.751Z,14.93
2017-05-22T04:44:10.120Z,14.95
2017-05-22T04:45:11.498Z,15.01
2017-05-22T04:46:12.949Z,15.02
2017-05-22T04:47:14.207Z,15.02
2017-05-22T04:48:15.575Z,15.01
2017-05-22T04:49:16.955Z,15.05
2017-05-22T04:50:18.323Z,15.09
2017-05-22T04:51:19.693Z,15.11
2017-05-22T04:52:21.064Z,15.11
2017-05-22T04:53:22.430Z,15.09
2017-05-22T04:54:23.808Z,15.15
2017-05-22T04:55:25.188Z,15.06
2017-05-22T04:56:26.579Z,15.19
2017-05-22T04:57:27.946Z,15.19
2017-05-22T04:58:29.328Z,15.20
2017-05-22T04:59:30.702Z,15.28
2017-05-22T05:00:32.074Z,15.23
2017-05-22T05:01:33.437Z,15.24
2017-05-22T05:02:34.816Z,15.26
2017-05-22T05:03:36.172Z,15.30
2017-05-22T05:04:37.548Z,15.36
2017-05-22T05:05:38.956Z,15.39
2017-05-22T05:06:40.347Z,15.39
2017-05-22T05:07:41.749Z,15.39
2017-05-22T05:08:43.111Z,15.49
2017-05-22T05:09:44.485Z,15.46
2017-05-22T05:10:45.848Z,15.49
2017-05-22T05:11:47.222Z,15.43
2017-05-22T05:12:49.516Z,15.46
2017-05-22T05:13:50.886Z,15.36
2017-05-22T05:14:52.259Z,15.54
2017-05-22T05:15:53.628Z,15.60
2017-05-22T05:16:55.009Z,15.57
2017-05-22T05:17:56.386Z,15.64
2017-05-22T05:18:57.753Z,15.67
2017-05-22T05:19:59.137Z,15.75
2017-05-22T05:21:00.505Z,15.68
2017-05-22T05:22:01.874Z,15.76
2017-05-22T05:23:03.242Z,15.84
2017-05-22T05:24:04.616Z,15.85
2017-05-22T05:25:05.987Z,15.93
2017-05-22T05:26:07.361Z,15.94
2017-05-22T05:27:08.785Z,16.01
2017-05-22T05:28:10.153Z,16.11
2017-05-22T05:29:11.528Z,16.12
2017-05-22T05:30:12.909Z,16.14
2017-05-22T05:31:14.286Z,16.12
2017-05-22T05:32:15.656Z,16.15
2017-05-22T05:33:17.057Z,16.33
2017-05-22T05:34:18.430Z,16.26
2017-05-22T05:35:19.822Z,16.26
2017-05-22T05:36:21.209Z,16.33
2017-05-22T05:37:22.580Z,16.30
2017-05-22T05:38:23.966Z,16.33
2017-05-22T05:39:25.331Z,16.37
2017-05-22T05:40:26.697Z,16.37
2017-05-22T05:41:28.080Z,16.40
2017-05-22T05:42:30.176Z,16.38
2017-05-22T05:43:31.570Z,16.42
2017-05-22T05:44:33.450Z,16.35
2017-05-22T05:45:34.834Z,16.45
2017-05-22T05:46:36.221Z,16.45
2017-05-22T05:47:37.595Z,16.44
2017-05-22T05:48:39.951Z,16.53
2017-05-22T05:49:41.326Z,16.56
2017-05-22T05:50:42.782Z,16.58
2017-05-22T05:51:44.850Z,16.55
2017-05-22T05:52:46.210Z,16.55
2017-05-22T05:53:47.576Z,16.65
2017-05-22T05:54:48.958Z,16.67
2017-05-22T05:55:50.337Z,16.71
2017-05-22T05:56:51.702Z,16.71
2017-05-22T05:57:53.082Z,16.78
2017-05-22T05:58:54.447Z,16.80
2017-05-22T05:59:55.820Z,16.77
2017-05-22T06:00:57.193Z,16.78
2017-05-22T06:01:58.590Z,16.89
2017-05-22T06:02:59.960Z,16.86
2017-05-22T06:04:01.344Z,16.81
2017-05-22T06:05:02.744Z,16.75
2017-05-22T06:06:04.170Z,16.80
2017-05-22T06:07:05.555Z,16.90
2017-05-22T06:08:06.932Z,16.88
2017-05-22T06:09:08.305Z,16.92
2017-05-22T06:10:09.705Z,16.88
2017-05-22T06:11:11.077Z,16.93
2017-05-22T06:12:12.449Z,17.03
2017-05-22T06:13:13.815Z,16.99
2017-05-22T06:14:15.202Z,17.00
2017-05-22T06:15:16.614Z,17.00
2017-05-22T06:16:18.002Z,17.03
2017-05-22T06:17:19.711Z,17.04
2017-05-22T06:18:21.082Z,16.99
2017-05-22T06:19:22.452Z,17.06
2017-05-22T06:20:23.826Z,17.07
2017-05-22T06:21:25.196Z,17.08
2017-05-22T06:22:26.582Z,17.17
2017-05-22T06:23:27.960Z,17.18
2017-05-22T06:24:29.333Z,17.22
2017-05-22T06:25:30.705Z,17.17
2017-05-22T06:26:32.086Z,17.13
2017-05-22T06:27:33.452Z,17.28
2017-05-22T06:28:34.820Z,17.26
2017-05-22T06:29:36.226Z,17.32
2017-05-22T06:30:37.591Z,17.30
2017-05-22T06:31:38.972Z,17.29
2017-05-22T06:32:40.341Z,17.30
2017-05-22T06:33:41.711Z,17.28
2017-05-22T06:34:43.081Z,17.35
2017-05-22T06:35:44.450Z,17.38
2017-05-22T06:36:45.888Z,17.26
2017-05-22T06:37:47.188Z,17.20
2017-05-22T06:38:48.607Z,17.33
2017-05-22T06:39:50.165Z,17.35
2017-05-22T06:40:51.540Z,17.28
2017-05-22T06:41:52.901Z,17.35
2017-05-22T06:42:54.276Z,17.33
2017-05-22T06:43:55.641Z,17.23
2017-05-22T06:44:57.006Z,17.53
2017-05-22T06:45:58.388Z,17.50
2017-05-22T06:46:59.757Z,17.50
2017-05-22T06:48:01.130Z,17.54
2017-05-22T06:49:02.510Z,17.47
2017-05-22T06:50:03.876Z,17.53
2017-05-22T06:51:05.250Z,17.46
2017-05-22T06:52:06.626Z,17.51
2017-05-22T06:53:08.002Z,17.48
2017-05-22T06:54:09.369Z,17.59
2017-05-22T06:55:10.742Z,17.64
2017-05-22T06:56:12.161Z,17.32
2017-05-22T06:57:13.476Z,17.30
2017-05-22T06:58:14.851Z,17.55
2017-05-22T06:59:16.222Z,17.55
2017-05-22T07:00:17.595Z,17.67
2017-05-22T07:01:18.962Z,17.70
2017-05-22T07:02:20.326Z,17.76
2017-05-22T07:03:21.698Z,17.70
2017-05-22T07:04:23.069Z,17.59
2017-05-22T07:05:24.442Z,17.79
2017-05-22T07:06:26.460Z,17.74
2017-05-22T07:07:27.842Z,17.71
2017-05-22T07:08:29.215Z,17.67
2017-05-22T07:09:30.588Z,17.62
2017-05-22T07:10:31.960Z,17.69
2017-05-22T07:11:33.328Z,17.79
2017-05-22T07:12:34.694Z,17.89
2017-05-22T07:13:36.062Z,17.87
2017-05-22T07:14:37.435Z,17.69
2017-05-22T07:15:38.809Z,17.81
2017-05-22T07:16:40.195Z,17.85
2017-05-22T07:17:41.557Z,17.94
2017-05-22T07:18:42.926Z,17.89
2017-05-22T07:19:44.303Z,17.99
2017-05-22T07:20:45.679Z,18.13
2017-05-22T07:21:47.050Z,18.06
2017-05-22T07:22:48.428Z,17.99
2017-05-22T07:23:50.469Z,17.91
2017-05-22T07:24:51.858Z,18.00
2017-05-22T07:25:53.978Z,18.00
2017-05-22T07:26:55.334Z,18.06
2017-05-22T07:27:56.706Z,18.12
2017-05-22T07:28:58.076Z,18.04
2017-05-22T07:29:59.967Z,18.15
2017-05-22T07:31:01.334Z,18.10
2017-05-22T07:32:02.704Z,18.15
2017-05-22T07:33:04.077Z,18.13
2017-05-22T07:34:05.457Z,18.17
2017-05-22T07:35:06.828Z,18.25
2017-05-22T07:36:08.207Z,18.28
2017-05-22T07:37:09.575Z,18.24
2017-05-22T07:38:10.949Z,18.19
2017-05-22T07:39:12.319Z,18.21
2017-05-22T07:40:13.684Z,18.15
2017-05-22T07:41:15.071Z,18.25
2017-05-22T07:42:16.448Z,18.29
2017-05-22T07:43:17.823Z,18.42
2017-05-22T07:44:19.193Z,18.33
2017-05-22T07:45:20.568Z,18.34
2017-05-22T07:46:21.933Z,18.40
2017-05-22T07:47:23.304Z,18.37
2017-05-22T07:48:24.677Z,18.50
2017-05-22T07:49:26.042Z,18.43
2017-05-22T07:50:27.414Z,18.44
2017-05-22T07:51:28.792Z,18.55
2017-05-22T07:52:30.171Z,18.52
2017-05-22T07:53:31.568Z,18.64
2017-05-22T07:54:32.936Z,18.54
2017-05-22T07:55:34.302Z,18.52
2017-05-22T07:56:35.669Z,18.54
2017-05-22T07:57:37.057Z,18.54
2017-05-22T07:58:38.446Z,18.61
2017-05-22T07:59:39.813Z,18.64
2017-05-22T08:00:41.190Z,18.76
2017-05-22T08:01:42.566Z,18.70
2017-05-22T08:02:44.558Z,18.80
2017-05-22T08:03:45.944Z,18.94
2017-05-22T08:04:47.315Z,18.97
2017-05-22T08:05:49.343Z,18.92
2017-05-22T08:06:50.721Z,18.98
2017-05-22T08:07:52.096Z,18.99
2017-05-22T08:08:53.465Z,19.10
2017-05-22T08:09:54.868Z,19.14
2017-05-22T08:10:56.219Z,19.18
2017-05-22T08:11:57.668Z,19.21
2017-05-22T08:12:59.037Z,19.14
2017-05-22T08:14:00.415Z,19.23
2017-05-22T08:15:01.779Z,19.24
2017-05-22T08:16:03.145Z,19.15
2017-05-22T08:17:04.560Z,19.25
2017-05-22T08:18:05.885Z,19.23
2017-05-22T08:19:07.258Z,19.24
2017-05-22T08:20:08.630Z,19.31
2017-05-22T08:21:10.005Z,19.29
2017-05-22T08:22:11.376Z,19.28
2017-05-22T08:23:12.749Z,19.35
2017-05-22T08:24:14.120Z,19.39
2017-05-22T08:25:15.499Z,19.54
2017-05-22T08:26:16.862Z,19.53
2017-05-22T08:27:18.240Z,19.61
2017-05-22T08:28:19.609Z,19.63
2017-05-22T08:29:20.994Z,19.69
2017-05-22T08:30:22.389Z,19.70
2017-05-22T08:31:23.753Z,19.68
2017-05-22T08:32:25.120Z,19.73
2017-05-22T08:33:26.496Z,19.72
2017-05-22T08:34:27.870Z,19.75
2017-05-22T08:35:29.256Z,19.78
2017-05-22T08:36:30.623Z,19.69
2017-05-22T08:37:31.985Z,19.83
2017-05-22T08:38:33.354Z,19.70
2017-05-22T08:39:34.733Z,19.75
2017-05-22T08:40:36.830Z,19.83
2017-05-22T08:41:38.237Z,19.98
2017-05-22T08:42:39.603Z,19.94
2017-05-22T08:43:40.989Z,19.94
2017-05-22T08:44:42.358Z,19.90
2017-05-22T08:45:43.741Z,19.98
2017-05-22T08:46:45.104Z,19.93
2017-05-22T08:47:46.492Z,19.93
2017-05-22T08:48:47.864Z,19.93
2017-05-22T08:49:49.232Z,19.97
2017-05-22T08:50:50.594Z,19.95
2017-05-22T08:51:51.968Z,20.06
2017-05-22T08:52:53.335Z,20.06
2017-05-22T08:53:54.713Z,20.09
2017-05-22T08:54:56.081Z,20.08
2017-05-22T08:55:57.461Z,20.05
2017-05-22T08:56:58.830Z,20.18
2017-05-22T08:58:00.199Z,20.28
2017-05-22T08:59:01.566Z,20.35
2017-05-22T09:00:03.010Z,20.39
2017-05-22T09:01:04.378Z,20.42
2017-05-22T09:02:05.749Z,20.39
2017-05-22T09:03:07.118Z,20.31
2017-05-22T09:04:08.494Z,20.34
2017-05-22T09:05:09.860Z,20.43
2017-05-22T09:06:11.327Z,20.47
2017-05-22T09:07:12.738Z,20.33
2017-05-22T09:08:14.107Z,20.33
2017-05-22T09:09:15.484Z,20.50
2017-05-22T09:10:16.859Z,20.39
2017-05-22T09:11:18.222Z,20.47
2017-05-22T09:12:19.601Z,20.41
2017-05-22T09:13:20.974Z,20.53
2017-05-22T09:14:22.361Z,20.49
2017-05-22T09:15:23.739Z,20.50
2017-05-22T09:16:25.634Z,20.54
2017-05-22T09:17:27.002Z,20.46
2017-05-22T09:18:28.382Z,20.50
2017-05-22T09:19:29.769Z,20.47
2017-05-22T09:20:31.139Z,20.58
2017-05-22T09:21:32.514Z,20.64
2017-05-22T09:22:33.878Z,20.79
2017-05-22T09:23:35.291Z,20.72
2017-05-22T09:24:36.623Z,20.69
2017-05-22T09:25:37.995Z,20.80
2017-05-22T09:26:39.368Z,20.59
2017-05-22T09:27:40.736Z,20.71
2017-05-22T09:28:42.105Z,20.71
2017-05-22T09:29:43.478Z,20.76
2017-05-22T09:30:44.847Z,20.76
2017-05-22T09:31:46.227Z,20.74
2017-05-22T09:32:47.627Z,20.79
2017-05-22T09:33:48.994Z,20.68
2017-05-22T09:34:50.358Z,20.62
2017-05-22T09:35:51.731Z,20.83
2017-05-22T09:36:53.099Z,20.80
2017-05-22T09:37:54.478Z,20.72
2017-05-22T09:38:55.844Z,20.61
2017-05-22T09:39:57.219Z,20.76
2017-05-22T09:40:58.582Z,20.72
2017-05-22T09:41:59.961Z,20.68
2017-05-22T09:43:01.330Z,20.71
2017-05-22T09:44:02.702Z,20.68
2017-05-22T09:45:04.069Z,20.84
2017-05-22T09:46:05.479Z,20.87
2017-05-22T09:47:06.855Z,20.90
2017-05-22T09:48:08.223Z,20.90
2017-05-22T09:49:09.590Z,20.91
2017-05-22T09:50:10.961Z,20.81
2017-05-22T09:51:12.334Z,20.80
2017-05-22T09:52:13.713Z,20.93
2017-05-22T09:53:15.091Z,20.91
2017-05-22T09:54:16.501Z,21.02
2017-05-22T09:55:17.874Z,21.09
2017-05-22T09:56:19.250Z,21.19
2017-05-22T09:57:20.622Z,21.13
2017-05-22T09:58:22.005Z,21.09
2017-05-22T09:59:23.373Z,21.14
2017-05-22T10:00:24.748Z,20.98
2017-05-22T10:01:26.130Z,21.05
2017-05-22T10:02:27.511Z,21.14
2017-05-22T10:03:28.872Z,21.06
2017-05-22T10:04:30.242Z,21.06
2017-05-22T10:05:31.609Z,21.06
2017-05-22T10:06:32.976Z,21.20
2017-05-22T10:07:34.350Z,21.21
2017-05-22T10:08:35.723Z,21.38
2017-05-22T10:09:37.090Z,21.38
2017-05-22T10:10:38.461Z,21.44
2017-05-22T10:11:39.838Z,21.42
2017-05-22T10:12:41.209Z,21.32
2017-05-22T10:13:42.584Z,21.30
2017-05-22T10:14:43.955Z,21.24
2017-05-22T10:15:45.332Z,21.42
2017-05-22T10:16:46.708Z,21.53
2017-05-22T10:17:48.099Z,21.54
2017-05-22T10:18:49.463Z,21.20
2017-05-22T10:19:51.350Z,21.32
2017-05-22T10:20:52.727Z,21.51
2017-05-22T10:21:54.097Z,21.54
2017-05-22T10:22:55.475Z,21.53
2017-05-22T10:23:56.852Z,21.56
2017-05-22T10:24:58.219Z,21.50
2017-05-22T10:25:59.594Z,21.30
2017-05-22T10:27:00.968Z,21.39
2017-05-22T10:28:02.334Z,21.34
2017-05-22T10:29:03.746Z,21.29
2017-05-22T10:30:05.115Z,21.30
2017-05-22T10:31:06.483Z,21.30
2017-05-22T10:32:07.857Z,21.36
2017-05-22T10:33:09.231Z,21.38
2017-05-22T10:34:10.607Z,21.63
2017-05-22T10:35:11.977Z,21.76
2017-05-22T10:36:13.484Z,21.61
2017-05-22T10:37:14.869Z,21.57
2017-05-22T10:38:16.240Z,21.63
2017-05-22T10:39:17.644Z,21.75
2017-05-22T10:40:19.074Z,21.83
2017-05-22T10:41:20.441Z,21.78
2017-05-22T10:42:21.816Z,21.87
2017-05-22T10:43:23.188Z,21.95
2017-05-22T10:44:24.568Z,21.97
2017-05-22T10:45:25.938Z,21.87
2017-05-22T10:46:27.333Z,22.06
2017-05-22T10:47:28.711Z,21.95
2017-05-22T10:48:30.084Z,22.02
2017-05-22T10:49:31.503Z,21.92
2017-05-22T10:50:32.817Z,22.09
2017-05-22T10:51:34.211Z,22.12
2017-05-22T10:52:35.587Z,22.06
2017-05-22T10:53:36.951Z,22.12
2017-05-22T10:54:38.319Z,22.10
2017-05-22T10:55:39.702Z,22.02
2017-05-22T10:56:41.086Z,21.99
2017-05-22T10:57:42.461Z,21.98
2017-05-22T10:58:43.831Z,21.90
2017-05-22T10:59:45.253Z,21.85
2017-05-22T11:00:46.622Z,21.94
2017-05-22T11:01:47.993Z,21.99
2017-05-22T11:02:49.368Z,21.94
2017-05-22T11:03:50.739Z,21.98
2017-05-22T11:04:52.124Z,22.07
2017-05-22T11:05:53.500Z,22.04
2017-05-22T11:06:54.875Z,21.97
2017-05-22T11:07:56.278Z,22.02
2017-05-22T11:08:57.657Z,22.06
2017-05-22T11:09:59.029Z,22.12
2017-05-22T11:11:00.443Z,22.09
2017-05-22T11:12:01.810Z,22.20
2017-05-22T11:13:03.180Z,22.31
2017-05-22T11:14:04.577Z,22.29
2017-05-22T11:15:05.952Z,22.10
2017-05-22T11:16:07.343Z,21.99
2017-05-22T11:17:08.742Z,22.04
2017-05-22T11:18:10.111Z,22.14
2017-05-22T11:19:11.490Z,22.32
2017-05-22T11:20:12.866Z,22.31
2017-05-22T11:21:14.235Z,22.38
2017-05-22T11:22:15.602Z,22.27
2017-05-22T11:23:16.982Z,22.38
2017-05-22T11:24:18.420Z,22.35
2017-05-22T11:25:19.800Z,22.29
2017-05-22T11:26:21.181Z,22.35
2017-05-22T11:27:22.557Z,22.44
2017-05-22T11:28:23.931Z,22.25
2017-05-22T11:29:25.314Z,22.14
2017-05-22T11:30:26.684Z,22.31
2017-05-22T11:31:28.070Z,22.43
2017-05-22T11:32:29.445Z,22.38
2017-05-22T11:33:30.823Z,22.49
2017-05-22T11:34:32.206Z,22.37
2017-05-22T11:35:33.573Z,22.34
2017-05-22T11:36:34.949Z,22.25
2017-05-22T11:37:36.336Z,22.41
2017-05-22T11:38:37.707Z,22.54
2017-05-22T11:39:39.077Z,22.52
2017-05-22T11:40:40.458Z,22.41
2017-05-22T11:41:41.851Z,22.50
2017-05-22T11:42:43.229Z,22.39
2017-05-22T11:43:44.607Z,22.39
2017-05-22T11:44:45.978Z,22.47
2017-05-22T11:45:47.345Z,22.47
2017-05-22T11:46:48.729Z,22.04
2017-05-22T11:47:50.099Z,22.37
2017-05-22T11:48:51.482Z,22.43
2017-05-22T11:49:52.856Z,22.46
2017-05-22T11:50:54.226Z,22.67
2017-05-22T11:51:55.597Z,22.54
2017-05-22T11:52:56.977Z,22.60
2017-05-22T11:53:58.362Z,22.64
2017-05-22T11:54:59.735Z,22.62
2017-05-22T11:56:01.142Z,22.64
2017-05-22T11:57:02.511Z,22.60
2017-05-22T11:58:03.885Z,22.65
2017-05-22T11:59:05.253Z,22.54
2017-05-22T12:00:06.624Z,22.54
2017-05-22T12:01:07.996Z,22.49
2017-05-22T12:02:09.379Z,22.47
2017-05-22T12:03:10.767Z,22.50
2017-05-22T12:04:12.142Z,22.64
2017-05-22T12:05:13.522Z,22.59
2017-05-22T12:06:14.897Z,22.64
2017-05-22T12:07:16.272Z,22.82
2017-05-22T12:08:17.734Z,22.62
2017-05-22T12:09:19.102Z,22.69
2017-05-22T12:10:20.479Z,22.82
2017-05-22T12:11:21.856Z,22.82
2017-05-22T12:12:23.316Z,22.89
2017-05-22T12:13:24.693Z,22.90
2017-05-22T12:14:26.064Z,22.83
2017-05-22T12:15:27.436Z,22.87
2017-05-22T12:16:28.814Z,22.92
2017-05-22T12:17:30.190Z,23.14
2017-05-22T12:18:31.562Z,23.22
2017-05-22T12:19:32.941Z,23.01
2017-05-22T12:20:34.317Z,22.99
2017-05-22T12:21:35.711Z,22.96
2017-05-22T12:22:37.121Z,22.90
2017-05-22T12:23:38.497Z,22.92
2017-05-22T12:24:39.880Z,22.77
2017-05-22T12:25:41.259Z,22.72
2017-05-22T12:26:42.625Z,22.72
2017-05-22T12:27:44.510Z,22.67
2017-05-22T12:28:45.899Z,22.57
2017-05-22T12:29:47.278Z,22.62
2017-05-22T12:30:48.663Z,22.67
2017-05-22T12:31:50.048Z,22.59
2017-05-22T12:32:51.423Z,22.59
2017-05-22T12:33:52.816Z,22.68
2017-05-22T12:34:54.214Z,22.72
2017-05-22T12:35:55.620Z,22.83
2017-05-22T12:36:56.989Z,22.77
2017-05-22T12:37:58.379Z,22.82
2017-05-22T12:38:59.747Z,22.84
2017-05-22T12:40:01.122Z,22.90
2017-05-22T12:41:02.488Z,22.96
2017-05-22T12:42:03.871Z,22.96
2017-05-22T12:43:05.242Z,22.83
2017-05-22T12:44:06.617Z,22.75
2017-05-22T12:45:08.537Z,22.72
2017-05-22T12:46:09.927Z,22.77
2017-05-22T12:47:11.330Z,22.89
2017-05-22T12:48:12.724Z,22.86
2017-05-22T12:49:14.153Z,22.90
2017-05-22T12:50:15.526Z,22.90
2017-05-22T12:51:16.896Z,22.87
2017-05-22T12:52:18.277Z,23.01
2017-05-22T12:53:19.719Z,22.93
2017-05-22T12:54:21.094Z,23.12
2017-05-22T12:55:22.460Z,23.08
2017-05-22T12:56:23.834Z,22.87
2017-05-22T12:57:25.202Z,22.80
2017-05-22T12:58:26.579Z,22.82
2017-05-22T12:59:28.029Z,22.82
2017-05-22T13:00:29.409Z,22.94
2017-05-22T13:01:30.966Z,22.87
2017-05-22T13:02:32.333Z,23.15
2017-05-22T13:03:33.732Z,23.22
2017-05-22T13:04:35.104Z,23.26
2017-05-22T13:05:36.478Z,23.07
2017-05-22T13:06:37.853Z,23.23
2017-05-22T13:07:39.253Z,23.15
2017-05-22T13:08:40.627Z,23.22
2017-05-22T13:09:42.001Z,23.12
2017-05-22T13:10:43.371Z,23.20